createdAt,value
2023-03-20T00:02:53.300Z,98285.75
2023-03-20T00:07:55.767Z,98291.09
2023-03-20T00:12:57.570Z,98294.84
2023-03-20T00:17:59.373Z,98294.19
2023-03-20T00:23:01.246Z,98302.00
2023-03-20T00:28:23.497Z,98304.75
2023-03-20T00:33:27.222Z,98312.72
2023-03-20T00:38:29.246Z,98309.31
2023-03-20T00:43:32.004Z,98307.53
2023-03-20T00:48:34.074Z,98311.09
2023-03-20T00:53:36.371Z,98312.88
2023-03-20T00:58:38.882Z,98310.44
2023-03-20T01:03:43.391Z,98312.25
2023-03-20T01:08:46.323Z,98309.00
2023-03-20T01:13:48.309Z,98303.97
2023-03-20T01:18:51.554Z,98298.13
2023-03-20T01:23:53.438Z,98287.75
2023-03-20T01:28:55.323Z,98292.94
2023-03-20T01:33:57.706Z,98289.69
2023-03-20T01:38:59.634Z,98293.25
2023-03-20T01:44:18.326Z,98294.88
2023-03-20T01:49:21.723Z,98298.47
2023-03-20T01:54:33.888Z,98290.34
2023-03-20T01:59:49.223Z,98295.69
2023-03-20T02:04:57.269Z,98295.69
2023-03-20T02:10:01.177Z,98292.94
2023-03-20T02:15:16.921Z,98295.53
2023-03-20T02:21:06.727Z,98303.16
2023-03-20T02:26:24.486Z,98296.19
2023-03-20T02:32:00.570Z,98301.38
2023-03-20T02:37:24.119Z,98296.50
2023-03-20T02:42:33.793Z,98294.88
2023-03-20T02:48:00.169Z,98294.88
2023-03-20T02:53:20.806Z,98294.25
2023-03-20T02:58:35.540Z,98309.00
2023-03-20T03:03:57.291Z,98299.44
2023-03-20T03:09:12.814Z,98300.25
2023-03-20T03:14:32.997Z,98292.44
2023-03-20T03:19:38.117Z,98302.03
2023-03-20T03:24:47.994Z,98300.25
2023-03-20T03:29:57.916Z,98296.03
2023-03-20T03:35:01.636Z,98290.19
2023-03-20T03:40:15.839Z,98289.53
2023-03-20T03:45:34.025Z,98295.53
2023-03-20T03:50:48.855Z,98292.31
2023-03-20T03:56:00.143Z,98289.06
2023-03-20T04:01:05.133Z,98297.03
2023-03-20T04:06:13.055Z,98300.44
2023-03-20T04:11:18.556Z,98292.97
2023-03-20T04:16:23.102Z,98301.72
2023-03-20T04:21:25.950Z,98299.28
2023-03-20T04:26:27.958Z,98305.47
2023-03-20T04:31:31.495Z,98308.06
2023-03-20T04:37:00.997Z,98305.47
2023-03-20T04:42:17.829Z,98304.81
2023-03-20T04:47:20.921Z,98304.81
2023-03-20T04:52:26.827Z,98303.03
2023-03-20T04:57:28.786Z,98311.16
2023-03-20T05:02:30.681Z,98317.47
2023-03-20T05:07:33.243Z,98316.03
2023-03-20T05:12:39.204Z,98324.63
2023-03-20T05:18:08.298Z,98325.59
2023-03-20T05:23:33.690Z,98332.56
2023-03-20T05:29:01.877Z,98343.59
2023-03-20T05:34:17.480Z,98349.63
2023-03-20T05:39:34.755Z,98349.44
2023-03-20T05:45:03.219Z,98359.69
2023-03-20T05:50:23.887Z,98359.69
2023-03-20T05:55:33.322Z,98374.28
2023-03-20T06:00:50.068Z,98366.50
2023-03-20T06:06:27.257Z,98366.66
2023-03-20T06:11:29.416Z,98374.44
2023-03-20T06:16:31.444Z,98374.28
2023-03-20T06:21:34.339Z,98375.09
2023-03-20T06:26:37.036Z,98380.28
2023-03-20T06:31:44.342Z,98376.72
2023-03-20T06:36:56.409Z,98378.66
2023-03-20T06:41:59.287Z,98373.78
2023-03-20T06:47:01.872Z,98376.22
2023-03-20T06:52:04.425Z,98376.72
2023-03-20T06:57:07.740Z,98378.00
2023-03-20T07:02:11.886Z,98383.34
2023-03-20T07:07:14.457Z,98384.31
2023-03-20T07:12:20.055Z,98376.19
2023-03-20T07:17:23.619Z,98378.59
2023-03-20T07:22:28.616Z,98376.78
2023-03-20T07:27:50.719Z,98377.63
2023-03-20T07:32:56.239Z,98387.00
2023-03-20T07:38:03.220Z,98386.16
2023-03-20T07:43:06.078Z,98394.00
2023-03-20T07:48:28.173Z,98402.91
2023-03-20T07:53:30.464Z,98401.75
2023-03-20T07:58:32.269Z,98410.22
2023-03-20T08:03:38.912Z,98408.66
2023-03-20T08:08:41.451Z,98415.34
2023-03-20T08:13:43.678Z,98410.94
2023-03-20T08:18:45.737Z,98406.56
2023-03-20T08:23:47.936Z,98411.59
2023-03-20T08:28:51.460Z,98417.28
2023-03-20T08:33:56.701Z,98421.38
2023-03-20T08:38:58.569Z,98418.47
2023-03-20T08:44:01.796Z,98423.38
2023-03-20T08:49:05.298Z,98429.22
2023-03-20T08:54:07.769Z,98417.00
2023-03-20T08:59:09.508Z,98419.88
2023-03-20T09:04:13.145Z,98429.44
2023-03-20T09:09:16.134Z,98421.59
2023-03-20T09:14:18.641Z,98424.16
2023-03-20T09:19:20.623Z,98430.28
2023-03-20T09:24:22.937Z,98430.13
2023-03-20T09:29:25.095Z,98432.84
2023-03-20T09:34:27.250Z,98427.25
2023-03-20T09:39:30.140Z,98428.81
2023-03-20T09:44:42.613Z,98430.78
2023-03-20T09:50:04.998Z,98444.56
2023-03-20T09:55:15.610Z,98433.94
2023-03-20T10:00:20.367Z,98441.75
2023-03-20T10:05:38.653Z,98447.53
2023-03-20T10:11:02.740Z,98452.63
2023-03-20T10:16:28.776Z,98454.94
2023-03-20T10:21:45.837Z,98450.00
2023-03-20T10:26:52.823Z,98443.34
2023-03-20T10:32:10.553Z,98440.94
2023-03-20T10:37:44.034Z,98437.50
2023-03-20T10:42:48.875Z,98435.84
2023-03-20T10:47:52.704Z,98435.75
2023-03-20T10:52:57.193Z,98434.34
2023-03-20T10:58:11.986Z,98430.84
2023-03-20T11:03:23.084Z,98419.53
2023-03-20T11:08:30.820Z,98419.09
2023-03-20T11:13:43.267Z,98427.22
2023-03-20T11:18:45.616Z,98415.53
2023-03-20T11:23:48.330Z,98416.44
2023-03-20T11:28:59.797Z,98426.50
2023-03-20T11:34:04.578Z,98419.66
2023-03-20T11:39:15.711Z,98419.75
2023-03-20T11:44:29.522Z,98415.00
2023-03-20T11:49:50.656Z,98412.13
2023-03-20T11:54:56.936Z,98409.22
2023-03-20T12:00:02.876Z,98407.34
2023-03-20T12:05:40.068Z,98407.06
2023-03-20T12:10:46.140Z,98394.56
2023-03-20T12:16:13.300Z,98390.25
2023-03-20T12:21:33.351Z,98383.78
2023-03-20T12:27:01.367Z,98383.25
2023-03-20T12:32:09.069Z,98385.13
2023-03-20T12:37:13.438Z,98385.59
2023-03-20T12:42:39.679Z,98376.22
2023-03-20T12:47:53.767Z,98375.88
2023-03-20T12:53:04.659Z,98378.47
2023-03-20T12:58:27.717Z,98383.69
2023-03-20T13:03:41.745Z,98371.28
2023-03-20T13:08:58.781Z,98361.75
2023-03-20T13:14:11.345Z,98365.78
2023-03-20T13:19:26.081Z,98362.72
2023-03-20T13:24:49.929Z,98357.59
2023-03-20T13:30:12.869Z,98363.63
2023-03-20T13:35:29.900Z,98349.06
2023-03-20T13:40:44.302Z,98348.34
2023-03-20T13:45:50.468Z,98340.25
2023-03-20T13:50:56.367Z,98345.81
2023-03-20T13:56:14.343Z,98341.94
2023-03-20T14:01:38.794Z,98342.66
2023-03-20T14:06:45.195Z,98337.72
2023-03-20T14:11:47.149Z,98343.91
2023-03-20T14:16:49.028Z,98341.03
2023-03-20T14:21:54.684Z,98341.34
2023-03-20T14:26:59.289Z,98350.38
2023-03-20T14:32:04.146Z,98345.38
2023-03-20T14:37:28.881Z,98344.84
2023-03-20T14:42:42.599Z,98348.03
2023-03-20T14:48:05.970Z,98363.34
2023-03-20T14:53:26.904Z,98363.34
2023-03-20T14:58:37.480Z,98352.59
2023-03-20T15:03:41.650Z,98348.31
2023-03-20T15:08:54.046Z,98348.31
2023-03-20T15:13:58.435Z,98346.41
2023-03-20T15:19:01.415Z,98346.13
2023-03-20T15:24:03.870Z,98348.06
2023-03-20T15:29:11.501Z,98348.41
2023-03-20T15:34:21.831Z,98338.69
2023-03-20T15:39:29.973Z,98339.03
2023-03-20T15:44:38.070Z,98343.59
2023-03-20T15:49:41.835Z,98345.91
2023-03-20T15:54:44.155Z,98347.69
2023-03-20T15:59:46.251Z,98353.38
2023-03-20T16:04:52.412Z,98356.78
2023-03-20T16:09:54.376Z,98357.94
2023-03-20T16:14:58.328Z,98353.06
2023-03-20T16:20:00.931Z,98356.34
2023-03-20T16:25:03.042Z,98355.88
2023-03-20T16:30:09.521Z,98357.84
2023-03-20T16:35:26.505Z,98344.84
2023-03-20T16:40:28.692Z,98349.41
2023-03-20T16:45:33.782Z,98344.38
2023-03-20T16:50:38.696Z,98344.88
2023-03-20T16:55:46.804Z,98352.38
2023-03-20T17:00:51.339Z,98346.69
2023-03-20T17:06:00.101Z,98349.16
2023-03-20T17:11:11.872Z,98350.47
2023-03-20T17:16:20.259Z,98348.22
2023-03-20T17:21:22.221Z,98351.28
2023-03-20T17:26:24.768Z,98356.00
2023-03-20T17:31:26.809Z,98344.97
2023-03-20T17:36:32.107Z,98352.94
2023-03-20T17:41:33.976Z,98358.13
2023-03-20T17:46:49.781Z,98353.91
2023-03-20T17:51:57.727Z,98345.63
2023-03-20T17:56:59.515Z,98341.41
2023-03-20T18:02:01.313Z,98347.59
2023-03-20T18:07:04.599Z,98338.50
2023-03-20T18:12:10.430Z,98340.28
2023-03-20T18:17:13.734Z,98347.28
2023-03-20T18:22:15.514Z,98347.44
2023-03-20T18:27:17.561Z,98351.81
2023-03-20T18:32:19.471Z,98351.00
2023-03-20T18:37:22.229Z,98344.19
2023-03-20T18:42:24.156Z,98343.53
2023-03-20T18:47:26.186Z,98348.09
2023-03-20T18:52:28.056Z,98345.66
2023-03-20T18:57:29.875Z,98358.00
2023-03-20T19:02:31.722Z,98347.78
2023-03-20T19:07:33.603Z,98359.16
2023-03-20T19:12:37.203Z,98356.56
2023-03-20T19:17:39.023Z,98358.34
2023-03-20T19:22:43.191Z,98353.97
2023-03-20T19:27:46.349Z,98352.34
2023-03-20T19:32:48.271Z,98352.50
2023-03-20T19:37:50.363Z,98351.34
2023-03-20T19:43:02.127Z,98348.75
2023-03-20T19:48:18.729Z,98341.94
2023-03-20T19:53:24.984Z,98348.13
2023-03-20T19:58:27.136Z,98353.47
2023-03-20T20:03:29.486Z,98339.84
2023-03-20T20:08:45.839Z,98342.75
2023-03-20T20:14:05.637Z,98339.03
2023-03-20T20:19:12.482Z,98326.72
2023-03-20T20:24:16.186Z,98331.75
2023-03-20T20:29:19.121Z,98325.44
2023-03-20T20:39:45.582Z,98318.63
2023-03-20T20:44:47.846Z,98331.28
2023-03-20T20:49:49.711Z,98328.69
2023-03-20T20:54:51.509Z,98335.81
2023-03-20T20:59:59.513Z,98334.19
2023-03-20T21:05:01.787Z,98322.84
2023-03-20T21:10:05.889Z,98323.81
2023-03-20T21:15:08.432Z,98323.00
2023-03-20T21:20:11.784Z,98329.97
2023-03-20T21:25:18.710Z,98332.41
2023-03-20T21:30:21.564Z,98326.75
2023-03-20T21:35:26.594Z,98334.53
2023-03-20T21:40:28.420Z,98342.31
2023-03-20T21:51:39.726Z,98335.19
2023-03-20T21:56:59.847Z,98335.00
2023-03-20T22:02:00.851Z,98345.41
2023-03-20T22:07:38.451Z,98346.22
2023-03-20T22:40:02.149Z,98358.69
2023-03-20T22:45:00.742Z,98359.84
2023-03-20T22:49:58.721Z,98362.44
2023-03-20T22:55:00.511Z,98365.03
2023-03-20T23:00:02.886Z,98360.66
2023-03-20T23:05:04.932Z,98348.47
2023-03-20T23:10:09.751Z,98348.00
2023-03-20T23:15:11.701Z,98342.31
2023-03-20T23:20:18.723Z,98341.00
2023-03-20T23:25:36.333Z,98348.47
2023-03-20T23:30:56.662Z,98349.13
2023-03-20T23:36:16.175Z,98348.63
2023-03-20T23:41:19.074Z,98349.59
2023-03-20T23:46:21.312Z,98351.22
2023-03-20T23:51:23.218Z,98344.25
2023-03-20T23:56:25.521Z,98335.97
